sensor_id;sensor_type;location;lat;lon;timestamp;temperature;humidity
54576;DHT22;40472;53.486;14.542;2022-12-10T00:01:29;-1.30;99.90
54576;DHT22;40472;53.486;14.542;2022-12-10T00:03:56;-1.30;99.90
54576;DHT22;40472;53.486;14.542;2022-12-10T00:06:32;-1.30;99.90
54576;DHT22;40472;53.486;14.542;2022-12-10T00:09:00;-1.30;99.90
54576;DHT22;40472;53.486;14.542;2022-12-10T00:11:26;-1.40;99.90
54576;DHT22;40472;53.486;14.542;2022-12-10T00:13:53;-1.40;99.90
54576;DHT22;40472;53.486;14.542;2022-12-10T00:16:21;-1.40;99.90
54576;DHT22;40472;53.486;14.542;2022-12-10T00:18:47;-1.30;99.90
54576;DHT22;40472;53.486;14.542;2022-12-10T00:21:19;-1.30;99.90
54576;DHT22;40472;53.486;14.542;2022-12-10T00:23:46;-1.30;99.90
54576;DHT22;40472;53.486;14.542;2022-12-10T00:26:13;-1.40;99.90
54576;DHT22;40472;53.486;14.542;2022-12-10T00:28:39;-1.30;99.90
54576;DHT22;40472;53.486;14.542;2022-12-10T00:31:11;-1.40;99.90
54576;DHT22;40472;53.486;14.542;2022-12-10T00:33:37;-1.50;99.90
54576;DHT22;40472;53.486;14.542;2022-12-10T00:36:06;-1.50;99.90
54576;DHT22;40472;53.486;14.542;2022-12-10T00:38:33;-1.50;99.90
54576;DHT22;40472;53.486;14.542;2022-12-10T00:40:59;-1.50;99.90
54576;DHT22;40472;53.486;14.542;2022-12-10T00:43:25;-1.50;99.90
54576;DHT22;40472;53.486;14.542;2022-12-10T00:45:52;-1.50;99.90
54576;DHT22;40472;53.486;14.542;2022-12-10T00:48:18;-1.50;99.90
54576;DHT22;40472;53.486;14.542;2022-12-10T00:50:44;-1.60;99.90
54576;DHT22;40472;53.486;14.542;2022-12-10T00:53:09;-1.50;99.90
54576;DHT22;40472;53.486;14.542;2022-12-10T00:55:35;-1.50;99.90
54576;DHT22;40472;53.486;14.542;2022-12-10T00:58:01;-1.50;99.90
54576;DHT22;40472;53.486;14.542;2022-12-10T01:00:27;-1.50;99.90
54576;DHT22;40472;53.486;14.542;2022-12-10T01:02:53;-1.50;99.90
54576;DHT22;40472;53.486;14.542;2022-12-10T01:05:18;-1.50;99.90
54576;DHT22;40472;53.486;14.542;2022-12-10T01:07:45;-1.50;99.90
54576;DHT22;40472;53.486;14.542;2022-12-10T01:10:10;-1.60;99.90
54576;DHT22;40472;53.486;14.542;2022-12-10T01:12:36;-1.60;99.90
54576;DHT22;40472;53.486;14.542;2022-12-10T01:15:02;-1.60;99.90
54576;DHT22;40472;53.486;14.542;2022-12-10T01:17:29;-1.60;99.90
54576;DHT22;40472;53.486;14.542;2022-12-10T01:19:55;-1.60;99.90
54576;DHT22;40472;53.486;14.542;2022-12-10T01:22:22;-1.70;99.90
54576;DHT22;40472;53.486;14.542;2022-12-10T01:24:48;-1.60;99.90
54576;DHT22;40472;53.486;14.542;2022-12-10T01:27:14;-1.70;99.90
54576;DHT22;40472;53.486;14.542;2022-12-10T01:29:40;-1.60;99.90
54576;DHT22;40472;53.486;14.542;2022-12-10T01:32:06;-1.50;99.90
54576;DHT22;40472;53.486;14.542;2022-12-10T01:34:31;-1.40;99.90
54576;DHT22;40472;53.486;14.542;2022-12-10T01:36:57;-1.30;99.90
54576;DHT22;40472;53.486;14.542;2022-12-10T01:39:23;-1.30;99.90
54576;DHT22;40472;53.486;14.542;2022-12-10T01:41:55;-1.50;99.90
54576;DHT22;40472;53.486;14.542;2022-12-10T01:46:49;-1.60;99.90
54576;DHT22;40472;53.486;14.542;2022-12-10T01:49:27;-1.60;99.90
54576;DHT22;40472;53.486;14.542;2022-12-10T01:51:59;-1.60;99.90
54576;DHT22;40472;53.486;14.542;2022-12-10T01:54:35;-1.60;99.90
54576;DHT22;40472;53.486;14.542;2022-12-10T01:57:04;-1.40;99.90
54576;DHT22;40472;53.486;14.542;2022-12-10T01:59:32;-1.40;99.90
54576;DHT22;40472;53.486;14.542;2022-12-10T02:13:02;-1.50;99.90
54576;DHT22;40472;53.486;14.542;2022-12-10T02:15:35;-1.60;99.90
54576;DHT22;40472;53.486;14.542;2022-12-10T02:18:11;-1.60;99.90
54576;DHT22;40472;53.486;14.542;2022-12-10T02:20:46;-1.50;99.90
54576;DHT22;40472;53.486;14.542;2022-12-10T02:23:19;-1.30;99.90
54576;DHT22;40472;53.486;14.542;2022-12-10T02:31:25;-1.50;99.90
54576;DHT22;40472;53.486;14.542;2022-12-10T02:33:56;-1.60;99.90
54576;DHT22;40472;53.486;14.542;2022-12-10T02:36:25;-1.70;99.90
54576;DHT22;40472;53.486;14.542;2022-12-10T02:38:53;-1.60;99.90
54576;DHT22;40472;53.486;14.542;2022-12-10T02:41:26;-1.60;99.90
54576;DHT22;40472;53.486;14.542;2022-12-10T02:43:54;-1.50;99.90
54576;DHT22;40472;53.486;14.542;2022-12-10T02:46:24;-1.40;99.90
54576;DHT22;40472;53.486;14.542;2022-12-10T02:48:54;-1.40;99.90
54576;DHT22;40472;53.486;14.542;2022-12-10T02:51:20;-1.40;99.90
54576;DHT22;40472;53.486;14.542;2022-12-10T02:53:46;-1.40;99.90
54576;DHT22;40472;53.486;14.542;2022-12-10T02:56:14;-1.40;99.90
54576;DHT22;40472;53.486;14.542;2022-12-10T03:04:20;-1.40;99.90
54576;DHT22;40472;53.486;14.542;2022-12-10T03:06:51;-1.40;99.90
54576;DHT22;40472;53.486;14.542;2022-12-10T03:09:26;-1.40;99.90
54576;DHT22;40472;53.486;14.542;2022-12-10T03:12:02;-1.50;99.90
54576;DHT22;40472;53.486;14.542;2022-12-10T03:14:32;-1.60;99.90
54576;DHT22;40472;53.486;14.542;2022-12-10T03:17:00;-1.60;99.90
54576;DHT22;40472;53.486;14.542;2022-12-10T03:19:36;-1.60;99.90
54576;DHT22;40472;53.486;14.542;2022-12-10T03:22:06;-1.60;99.90
54576;DHT22;40472;53.486;14.542;2022-12-10T03:24:35;-1.60;99.90
54576;DHT22;40472;53.486;14.542;2022-12-10T03:27:03;-1.50;99.90
54576;DHT22;40472;53.486;14.542;2022-12-10T03:29:54;-1.60;99.90
54576;DHT22;40472;53.486;14.542;2022-12-10T03:32:22;-1.50;99.90
54576;DHT22;40472;53.486;14.542;2022-12-10T03:34:50;-1.50;99.90
54576;DHT22;40472;53.486;14.542;2022-12-10T03:37:17;-1.50;99.90
54576;DHT22;40472;53.486;14.542;2022-12-10T03:39:43;-1.50;99.90
54576;DHT22;40472;53.486;14.542;2022-12-10T03:42:09;-1.50;99.90
54576;DHT22;40472;53.486;14.542;2022-12-10T03:44:37;-1.60;99.90
54576;DHT22;40472;53.486;14.542;2022-12-10T03:47:05;-1.50;99.90
54576;DHT22;40472;53.486;14.542;2022-12-10T03:49:31;-1.50;99.90
54576;DHT22;40472;53.486;14.542;2022-12-10T03:51:57;-1.50;99.90
54576;DHT22;40472;53.486;14.542;2022-12-10T03:54:23;-1.50;99.90
54576;DHT22;40472;53.486;14.542;2022-12-10T03:56:49;-1.50;99.90
54576;DHT22;40472;53.486;14.542;2022-12-10T03:59:15;-1.60;99.90
54576;DHT22;40472;53.486;14.542;2022-12-10T04:01:41;-1.60;99.90
54576;DHT22;40472;53.486;14.542;2022-12-10T04:04:07;-1.50;99.90
54576;DHT22;40472;53.486;14.542;2022-12-10T04:06:34;-1.50;99.90
54576;DHT22;40472;53.486;14.542;2022-12-10T04:09:00;-1.50;99.90
54576;DHT22;40472;53.486;14.542;2022-12-10T04:11:26;-1.50;99.90
54576;DHT22;40472;53.486;14.542;2022-12-10T04:13:51;-1.60;99.90
54576;DHT22;40472;53.486;14.542;2022-12-10T04:16:36;-1.60;99.90
54576;DHT22;40472;53.486;14.542;2022-12-10T04:19:05;-1.60;99.90
54576;DHT22;40472;53.486;14.542;2022-12-10T04:21:33;-1.60;99.90
54576;DHT22;40472;53.486;14.542;2022-12-10T04:24:21;-1.60;99.90
54576;DHT22;40472;53.486;14.542;2022-12-10T04:27:17;-1.70;99.90
54576;DHT22;40472;53.486;14.542;2022-12-10T04:29:44;-1.60;99.90
54576;DHT22;40472;53.486;14.542;2022-12-10T04:32:10;-1.60;99.90
54576;DHT22;40472;53.486;14.542;2022-12-10T04:34:36;-1.60;99.90
54576;DHT22;40472;53.486;14.542;2022-12-10T04:37:02;-1.60;99.90
54576;DHT22;40472;53.486;14.542;2022-12-10T04:39:28;-1.60;99.90
54576;DHT22;40472;53.486;14.542;2022-12-10T04:41:54;-1.60;99.90
54576;DHT22;40472;53.486;14.542;2022-12-10T04:44:20;-1.60;99.90
54576;DHT22;40472;53.486;14.542;2022-12-10T04:46:47;-1.60;99.90
54576;DHT22;40472;53.486;14.542;2022-12-10T04:49:13;-1.70;99.90
54576;DHT22;40472;53.486;14.542;2022-12-10T04:51:39;-1.70;99.90
54576;DHT22;40472;53.486;14.542;2022-12-10T04:54:06;-1.60;99.90
54576;DHT22;40472;53.486;14.542;2022-12-10T04:56:33;-1.70;99.90
54576;DHT22;40472;53.486;14.542;2022-12-10T04:58:59;-1.60;99.90
54576;DHT22;40472;53.486;14.542;2022-12-10T05:01:26;-1.70;99.90
54576;DHT22;40472;53.486;14.542;2022-12-10T05:03:53;-1.70;99.90
54576;DHT22;40472;53.486;14.542;2022-12-10T05:06:19;-1.70;99.90
54576;DHT22;40472;53.486;14.542;2022-12-10T05:08:46;-1.70;99.90
54576;DHT22;40472;53.486;14.542;2022-12-10T05:11:14;-1.80;99.90
54576;DHT22;40472;53.486;14.542;2022-12-10T05:13:41;-1.70;99.90
54576;DHT22;40472;53.486;14.542;2022-12-10T05:16:09;-1.70;99.90
54576;DHT22;40472;53.486;14.542;2022-12-10T05:18:36;-1.70;99.90
54576;DHT22;40472;53.486;14.542;2022-12-10T05:21:04;-1.70;99.90
54576;DHT22;40472;53.486;14.542;2022-12-10T05:23:31;-1.70;99.90
54576;DHT22;40472;53.486;14.542;2022-12-10T05:28:28;-1.70;99.90
54576;DHT22;40472;53.486;14.542;2022-12-10T05:30:55;-1.80;99.90
54576;DHT22;40472;53.486;14.542;2022-12-10T05:33:21;-1.70;99.90
54576;DHT22;40472;53.486;14.542;2022-12-10T05:36:01;-1.70;99.90
54576;DHT22;40472;53.486;14.542;2022-12-10T05:38:29;-1.80;99.90
54576;DHT22;40472;53.486;14.542;2022-12-10T05:40:55;-1.70;99.90
54576;DHT22;40472;53.486;14.542;2022-12-10T05:43:21;-1.70;99.90
54576;DHT22;40472;53.486;14.542;2022-12-10T05:45:47;-1.70;99.90
54576;DHT22;40472;53.486;14.542;2022-12-10T05:48:14;-1.70;99.90
54576;DHT22;40472;53.486;14.542;2022-12-10T05:50:40;-1.70;99.90
54576;DHT22;40472;53.486;14.542;2022-12-10T05:53:06;-1.70;99.90
54576;DHT22;40472;53.486;14.542;2022-12-10T05:55:32;-1.60;99.90
54576;DHT22;40472;53.486;14.542;2022-12-10T05:57:59;-1.60;99.90
54576;DHT22;40472;53.486;14.542;2022-12-10T06:00:26;-1.60;99.90
54576;DHT22;40472;53.486;14.542;2022-12-10T06:02:52;-1.70;99.90
54576;DHT22;40472;53.486;14.542;2022-12-10T06:05:18;-1.70;99.90
54576;DHT22;40472;53.486;14.542;2022-12-10T06:07:44;-1.70;99.90
54576;DHT22;40472;53.486;14.542;2022-12-10T06:10:11;-1.70;99.90
54576;DHT22;40472;53.486;14.542;2022-12-10T06:12:37;-1.80;99.90
54576;DHT22;40472;53.486;14.542;2022-12-10T06:15:04;-1.90;99.90
54576;DHT22;40472;53.486;14.542;2022-12-10T06:17:30;-1.90;99.90
54576;DHT22;40472;53.486;14.542;2022-12-10T06:19:56;-1.90;99.90
54576;DHT22;40472;53.486;14.542;2022-12-10T06:22:22;-1.90;99.90
54576;DHT22;40472;53.486;14.542;2022-12-10T06:24:48;-1.90;99.90
54576;DHT22;40472;53.486;14.542;2022-12-10T06:27:13;-1.90;99.90
54576;DHT22;40472;53.486;14.542;2022-12-10T06:29:40;-1.90;99.90
54576;DHT22;40472;53.486;14.542;2022-12-10T06:32:06;-1.90;99.90
54576;DHT22;40472;53.486;14.542;2022-12-10T06:34:31;-1.90;99.90
54576;DHT22;40472;53.486;14.542;2022-12-10T06:36:57;-1.80;99.90
54576;DHT22;40472;53.486;14.542;2022-12-10T06:39:23;-1.90;99.90
54576;DHT22;40472;53.486;14.542;2022-12-10T06:41:48;-1.90;99.90
54576;DHT22;40472;53.486;14.542;2022-12-10T06:44:14;-2.00;99.90
54576;DHT22;40472;53.486;14.542;2022-12-10T06:46:40;-1.90;99.90
54576;DHT22;40472;53.486;14.542;2022-12-10T06:49:07;-1.90;99.90
54576;DHT22;40472;53.486;14.542;2022-12-10T06:51:34;-1.90;99.90
54576;DHT22;40472;53.486;14.542;2022-12-10T06:53:59;-2.00;99.90
54576;DHT22;40472;53.486;14.542;2022-12-10T06:56:25;-2.00;99.90
54576;DHT22;40472;53.486;14.542;2022-12-10T06:58:51;-2.00;99.90
54576;DHT22;40472;53.486;14.542;2022-12-10T07:01:23;-1.90;99.90
54576;DHT22;40472;53.486;14.542;2022-12-10T07:03:56;-1.90;99.90
54576;DHT22;40472;53.486;14.542;2022-12-10T07:06:23;-2.00;99.90
54576;DHT22;40472;53.486;14.542;2022-12-10T07:08:49;-2.00;99.90
54576;DHT22;40472;53.486;14.542;2022-12-10T07:11:17;-2.00;99.90
54576;DHT22;40472;53.486;14.542;2022-12-10T07:13:43;-1.90;99.90
54576;DHT22;40472;53.486;14.542;2022-12-10T07:16:29;-1.80;99.90
54576;DHT22;40472;53.486;14.542;2022-12-10T07:18:56;-1.80;99.90
54576;DHT22;40472;53.486;14.542;2022-12-10T07:21:30;-1.80;99.90
54576;DHT22;40472;53.486;14.542;2022-12-10T07:24:03;-1.80;99.90
54576;DHT22;40472;53.486;14.542;2022-12-10T07:26:32;-1.80;99.90
54576;DHT22;40472;53.486;14.542;2022-12-10T07:28:59;-1.80;99.90
54576;DHT22;40472;53.486;14.542;2022-12-10T07:31:25;-1.70;99.90
54576;DHT22;40472;53.486;14.542;2022-12-10T07:33:52;-1.70;99.90
54576;DHT22;40472;53.486;14.542;2022-12-10T07:36:20;-1.70;99.90
54576;DHT22;40472;53.486;14.542;2022-12-10T07:38:48;-1.70;99.90
54576;DHT22;40472;53.486;14.542;2022-12-10T07:41:14;-1.70;99.90
54576;DHT22;40472;53.486;14.542;2022-12-10T07:43:42;-1.60;99.90
54576;DHT22;40472;53.486;14.542;2022-12-10T07:46:13;-1.70;99.90
54576;DHT22;40472;53.486;14.542;2022-12-10T07:48:41;-1.70;99.90
54576;DHT22;40472;53.486;14.542;2022-12-10T07:51:08;-1.80;99.90
54576;DHT22;40472;53.486;14.542;2022-12-10T07:53:33;-1.80;99.90
54576;DHT22;40472;53.486;14.542;2022-12-10T07:55:59;-1.70;99.90
54576;DHT22;40472;53.486;14.542;2022-12-10T07:58:26;-1.60;99.90
54576;DHT22;40472;53.486;14.542;2022-12-10T08:00:51;-1.50;99.90
54576;DHT22;40472;53.486;14.542;2022-12-10T08:03:17;-1.50;99.90
54576;DHT22;40472;53.486;14.542;2022-12-10T08:05:43;-1.50;99.90
54576;DHT22;40472;53.486;14.542;2022-12-10T08:08:09;-1.50;99.90
54576;DHT22;40472;53.486;14.542;2022-12-10T08:10:36;-1.60;99.90
54576;DHT22;40472;53.486;14.542;2022-12-10T08:13:02;-1.60;99.90
54576;DHT22;40472;53.486;14.542;2022-12-10T08:15:28;-1.60;99.90
54576;DHT22;40472;53.486;14.542;2022-12-10T08:17:54;-1.60;99.90
54576;DHT22;40472;53.486;14.542;2022-12-10T08:20:21;-1.50;99.90
54576;DHT22;40472;53.486;14.542;2022-12-10T08:22:47;-1.50;99.90
54576;DHT22;40472;53.486;14.542;2022-12-10T08:25:13;-1.40;99.90
54576;DHT22;40472;53.486;14.542;2022-12-10T08:27:38;-1.40;99.90
54576;DHT22;40472;53.486;14.542;2022-12-10T08:30:05;-1.40;99.90
54576;DHT22;40472;53.486;14.542;2022-12-10T08:32:31;-1.40;99.90
54576;DHT22;40472;53.486;14.542;2022-12-10T08:34:57;-1.40;99.90
54576;DHT22;40472;53.486;14.542;2022-12-10T08:37:22;-1.30;99.90
54576;DHT22;40472;53.486;14.542;2022-12-10T08:39:48;-1.40;99.90
54576;DHT22;40472;53.486;14.542;2022-12-10T08:42:14;-1.40;99.90
54576;DHT22;40472;53.486;14.542;2022-12-10T08:44:40;-1.40;99.90
54576;DHT22;40472;53.486;14.542;2022-12-10T08:47:06;-1.50;99.90
54576;DHT22;40472;53.486;14.542;2022-12-10T08:49:32;-1.50;99.90
54576;DHT22;40472;53.486;14.542;2022-12-10T08:51:59;-1.50;99.90
54576;DHT22;40472;53.486;14.542;2022-12-10T08:54:29;-1.40;99.90
54576;DHT22;40472;53.486;14.542;2022-12-10T08:56:55;-1.40;99.90
54576;DHT22;40472;53.486;14.542;2022-12-10T08:59:21;-1.40;99.90
54576;DHT22;40472;53.486;14.542;2022-12-10T09:01:47;-1.40;99.90
54576;DHT22;40472;53.486;14.542;2022-12-10T09:04:12;-1.50;99.90
54576;DHT22;40472;53.486;14.542;2022-12-10T09:06:41;-1.50;99.90
54576;DHT22;40472;53.486;14.542;2022-12-10T09:09:06;-1.40;99.90
54576;DHT22;40472;53.486;14.542;2022-12-10T09:11:38;-1.30;99.90
54576;DHT22;40472;53.486;14.542;2022-12-10T09:14:08;-1.40;99.90
54576;DHT22;40472;53.486;14.542;2022-12-10T09:16:36;-1.10;99.90
54576;DHT22;40472;53.486;14.542;2022-12-10T09:19:03;-1.20;99.90
54576;DHT22;40472;53.486;14.542;2022-12-10T09:21:29;-1.30;99.90
54576;DHT22;40472;53.486;14.542;2022-12-10T09:24:02;-1.40;99.90
54576;DHT22;40472;53.486;14.542;2022-12-10T09:26:28;-1.40;99.90
54576;DHT22;40472;53.486;14.542;2022-12-10T09:28:53;-1.40;99.90
54576;DHT22;40472;53.486;14.542;2022-12-10T09:31:20;-1.40;99.90
54576;DHT22;40472;53.486;14.542;2022-12-10T09:33:49;-1.40;99.90
54576;DHT22;40472;53.486;14.542;2022-12-10T09:36:15;-1.30;99.90
54576;DHT22;40472;53.486;14.542;2022-12-10T09:38:43;-1.10;99.90
54576;DHT22;40472;53.486;14.542;2022-12-10T09:44:03;-1.10;99.90
54576;DHT22;40472;53.486;14.542;2022-12-10T09:46:51;-1.10;99.90
54576;DHT22;40472;53.486;14.542;2022-12-10T09:52:06;-1.20;99.90
54576;DHT22;40472;53.486;14.542;2022-12-10T09:54:43;-1.10;99.90
54576;DHT22;40472;53.486;14.542;2022-12-10T09:57:31;-1.00;99.90
54576;DHT22;40472;53.486;14.542;2022-12-10T10:00:37;-1.10;99.90
54576;DHT22;40472;53.486;14.542;2022-12-10T10:03:04;-1.00;99.90
54576;DHT22;40472;53.486;14.542;2022-12-10T10:05:39;-1.00;99.90
54576;DHT22;40472;53.486;14.542;2022-12-10T10:08:21;-1.00;99.90
54576;DHT22;40472;53.486;14.542;2022-12-10T10:10:48;-0.90;99.90
54576;DHT22;40472;53.486;14.542;2022-12-10T10:13:31;-0.90;99.90
54576;DHT22;40472;53.486;14.542;2022-12-10T10:18:45;-0.80;99.90
54576;DHT22;40472;53.486;14.542;2022-12-10T10:21:21;-0.80;99.90
54576;DHT22;40472;53.486;14.542;2022-12-10T10:23:48;-0.80;99.90
54576;DHT22;40472;53.486;14.542;2022-12-10T10:26:14;-0.70;99.90
54576;DHT22;40472;53.486;14.542;2022-12-10T10:28:41;-0.90;99.90
54576;DHT22;40472;53.486;14.542;2022-12-10T10:31:21;-0.80;99.90
54576;DHT22;40472;53.486;14.542;2022-12-10T10:33:57;-0.80;99.90
54576;DHT22;40472;53.486;14.542;2022-12-10T10:36:25;-0.70;99.90
54576;DHT22;40472;53.486;14.542;2022-12-10T10:38:52;-0.80;99.90
54576;DHT22;40472;53.486;14.542;2022-12-10T10:41:18;-0.80;99.90
54576;DHT22;40472;53.486;14.542;2022-12-10T10:43:44;-1.00;99.90
54576;DHT22;40472;53.486;14.542;2022-12-10T10:46:14;-0.80;99.90
54576;DHT22;40472;53.486;14.542;2022-12-10T10:48:40;-0.90;99.90
54576;DHT22;40472;53.486;14.542;2022-12-10T10:56:19;-0.70;99.90
54576;DHT22;40472;53.486;14.542;2022-12-10T10:59:02;-0.80;99.90
54576;DHT22;40472;53.486;14.542;2022-12-10T11:07:02;-0.90;99.90
54576;DHT22;40472;53.486;14.542;2022-12-10T11:09:32;-0.90;99.90
54576;DHT22;40472;53.486;14.542;2022-12-10T11:12:04;-1.00;99.90
54576;DHT22;40472;53.486;14.542;2022-12-10T11:14:38;-0.80;99.90
54576;DHT22;40472;53.486;14.542;2022-12-10T11:19:36;-0.80;99.90
54576;DHT22;40472;53.486;14.542;2022-12-10T11:22:20;-0.80;99.90
54576;DHT22;40472;53.486;14.542;2022-12-10T11:24:48;-0.80;99.90
54576;DHT22;40472;53.486;14.542;2022-12-10T11:27:49;-0.80;99.90
54576;DHT22;40472;53.486;14.542;2022-12-10T11:30:21;-0.90;99.90
54576;DHT22;40472;53.486;14.542;2022-12-10T11:33:25;-0.90;99.90
54576;DHT22;40472;53.486;14.542;2022-12-10T11:41:41;-0.60;99.90
54576;DHT22;40472;53.486;14.542;2022-12-10T11:49:35;-0.90;99.90
54576;DHT22;40472;53.486;14.542;2022-12-10T11:52:18;-0.90;99.90
54576;DHT22;40472;53.486;14.542;2022-12-10T12:00:23;-0.80;99.90
54576;DHT22;40472;53.486;14.542;2022-12-10T12:05:48;-0.80;99.90
54576;DHT22;40472;53.486;14.542;2022-12-10T12:14:26;-0.90;99.90
54576;DHT22;40472;53.486;14.542;2022-12-10T12:17:38;-1.00;99.90
54576;DHT22;40472;53.486;14.542;2022-12-10T12:19:54;-0.90;99.90
54576;DHT22;40472;53.486;14.542;2022-12-10T12:22:34;-0.70;99.90
54576;DHT22;40472;53.486;14.542;2022-12-10T12:25:15;-0.70;99.90
54576;DHT22;40472;53.486;14.542;2022-12-10T12:27:46;-0.80;99.90
54576;DHT22;40472;53.486;14.542;2022-12-10T12:30:20;-0.90;99.90
54576;DHT22;40472;53.486;14.542;2022-12-10T12:33:04;-0.80;99.90
54576;DHT22;40472;53.486;14.542;2022-12-10T12:36:03;-0.70;99.90
54576;DHT22;40472;53.486;14.542;2022-12-10T12:41:36;-0.50;99.90
54576;DHT22;40472;53.486;14.542;2022-12-10T12:46:43;-0.40;99.90
54576;DHT22;40472;53.486;14.542;2022-12-10T12:49:29;-0.50;99.90
54576;DHT22;40472;53.486;14.542;2022-12-10T12:52:00;-0.60;99.90
54576;DHT22;40472;53.486;14.542;2022-12-10T12:54:26;-0.70;99.90
54576;DHT22;40472;53.486;14.542;2022-12-10T12:56:58;-0.80;99.90
54576;DHT22;40472;53.486;14.542;2022-12-10T13:02:22;-0.70;99.90
54576;DHT22;40472;53.486;14.542;2022-12-10T13:04:52;-0.90;99.90
54576;DHT22;40472;53.486;14.542;2022-12-10T13:09:45;-0.90;99.90
54576;DHT22;40472;53.486;14.542;2022-12-10T13:17:34;-0.80;99.90
54576;DHT22;40472;53.486;14.542;2022-12-10T13:23:08;-0.60;99.90
54576;DHT22;40472;53.486;14.542;2022-12-10T13:31:19;-0.70;99.90
54576;DHT22;40472;53.486;14.542;2022-12-10T13:39:22;-0.50;99.90
54576;DHT22;40472;53.486;14.542;2022-12-10T13:45:05;-0.80;99.90
54576;DHT22;40472;53.486;14.542;2022-12-10T13:47:51;-0.80;99.90
54576;DHT22;40472;53.486;14.542;2022-12-10T13:50:19;-0.90;99.90
54576;DHT22;40472;53.486;14.542;2022-12-10T13:55:44;-0.80;99.90
54576;DHT22;40472;53.486;14.542;2022-12-10T13:58:36;-1.00;99.90
54576;DHT22;40472;53.486;14.542;2022-12-10T14:01:35;-1.00;99.90
54576;DHT22;40472;53.486;14.542;2022-12-10T14:04:04;-1.10;99.90
54576;DHT22;40472;53.486;14.542;2022-12-10T14:06:38;-1.00;99.90
54576;DHT22;40472;53.486;14.542;2022-12-10T14:09:21;-1.00;99.90
54576;DHT22;40472;53.486;14.542;2022-12-10T14:12:03;-0.90;99.90
54576;DHT22;40472;53.486;14.542;2022-12-10T14:14:33;-0.90;99.90
54576;DHT22;40472;53.486;14.542;2022-12-10T14:17:05;-1.00;99.90
54576;DHT22;40472;53.486;14.542;2022-12-10T14:19:33;-1.00;99.90
54576;DHT22;40472;53.486;14.542;2022-12-10T14:22:06;-1.10;99.90
54576;DHT22;40472;53.486;14.542;2022-12-10T14:24:37;-1.00;99.90
54576;DHT22;40472;53.486;14.542;2022-12-10T14:27:16;-1.00;99.90
54576;DHT22;40472;53.486;14.542;2022-12-10T14:29:46;-1.10;99.90
54576;DHT22;40472;53.486;14.542;2022-12-10T14:32:18;-1.00;99.90
54576;DHT22;40472;53.486;14.542;2022-12-10T14:35:05;-1.10;99.90
54576;DHT22;40472;53.486;14.542;2022-12-10T14:37:36;-1.10;99.90
54576;DHT22;40472;53.486;14.542;2022-12-10T14:40:05;-1.10;99.90
54576;DHT22;40472;53.486;14.542;2022-12-10T14:42:31;-1.10;99.90
54576;DHT22;40472;53.486;14.542;2022-12-10T14:45:03;-1.30;99.90
54576;DHT22;40472;53.486;14.542;2022-12-10T14:47:37;-1.40;99.90
54576;DHT22;40472;53.486;14.542;2022-12-10T14:50:06;-1.40;99.90
54576;DHT22;40472;53.486;14.542;2022-12-10T14:52:40;-1.50;99.90
54576;DHT22;40472;53.486;14.542;2022-12-10T14:55:21;-1.40;99.90
54576;DHT22;40472;53.486;14.542;2022-12-10T14:57:55;-1.40;99.90
54576;DHT22;40472;53.486;14.542;2022-12-10T15:00:22;-1.50;99.90
54576;DHT22;40472;53.486;14.542;2022-12-10T15:02:54;-1.60;99.90
54576;DHT22;40472;53.486;14.542;2022-12-10T15:05:25;-1.70;99.90
54576;DHT22;40472;53.486;14.542;2022-12-10T15:08:02;-1.80;99.90
54576;DHT22;40472;53.486;14.542;2022-12-10T15:10:50;-1.80;99.90
54576;DHT22;40472;53.486;14.542;2022-12-10T15:15:55;-1.80;99.90
54576;DHT22;40472;53.486;14.542;2022-12-10T15:18:36;-1.90;99.90
54576;DHT22;40472;53.486;14.542;2022-12-10T15:21:16;-2.00;99.90
54576;DHT22;40472;53.486;14.542;2022-12-10T15:23:44;-2.00;99.90
54576;DHT22;40472;53.486;14.542;2022-12-10T15:28:38;-2.00;99.90
54576;DHT22;40472;53.486;14.542;2022-12-10T15:33:59;-1.90;99.90
54576;DHT22;40472;53.486;14.542;2022-12-10T15:36:35;-1.90;99.90
54576;DHT22;40472;53.486;14.542;2022-12-10T15:39:23;-1.80;99.90
54576;DHT22;40472;53.486;14.542;2022-12-10T15:41:52;-1.90;99.90
54576;DHT22;40472;53.486;14.542;2022-12-10T15:46:58;-1.90;99.90
54576;DHT22;40472;53.486;14.542;2022-12-10T15:49:25;-1.90;99.90
54576;DHT22;40472;53.486;14.542;2022-12-10T15:51:51;-1.90;99.90
54576;DHT22;40472;53.486;14.542;2022-12-10T15:54:38;-1.90;99.90
54576;DHT22;40472;53.486;14.542;2022-12-10T15:57:19;-1.90;99.90
54576;DHT22;40472;53.486;14.542;2022-12-10T15:59:49;-1.90;99.90
54576;DHT22;40472;53.486;14.542;2022-12-10T16:02:37;-1.90;99.90
54576;DHT22;40472;53.486;14.542;2022-12-10T16:07:52;-1.80;99.90
54576;DHT22;40472;53.486;14.542;2022-12-10T16:10:20;-1.80;99.90
54576;DHT22;40472;53.486;14.542;2022-12-10T16:12:49;-1.70;99.90
54576;DHT22;40472;53.486;14.542;2022-12-10T16:15:24;-1.70;99.90
54576;DHT22;40472;53.486;14.542;2022-12-10T16:17:50;-1.60;99.90
54576;DHT22;40472;53.486;14.542;2022-12-10T16:20:23;-1.60;99.90
54576;DHT22;40472;53.486;14.542;2022-12-10T16:22:50;-1.60;99.90
54576;DHT22;40472;53.486;14.542;2022-12-10T16:25:16;-1.60;99.90
54576;DHT22;40472;53.486;14.542;2022-12-10T16:27:42;-1.60;99.90
54576;DHT22;40472;53.486;14.542;2022-12-10T16:30:18;-1.70;99.90
54576;DHT22;40472;53.486;14.542;2022-12-10T16:32:45;-1.70;99.90
54576;DHT22;40472;53.486;14.542;2022-12-10T16:35:11;-1.60;99.90
54576;DHT22;40472;53.486;14.542;2022-12-10T16:37:49;-1.60;99.90
54576;DHT22;40472;53.486;14.542;2022-12-10T16:40:23;-1.70;99.90
54576;DHT22;40472;53.486;14.542;2022-12-10T16:42:49;-1.70;99.90
54576;DHT22;40472;53.486;14.542;2022-12-10T16:47:48;-1.60;99.90
54576;DHT22;40472;53.486;14.542;2022-12-10T16:50:15;-1.60;99.90
54576;DHT22;40472;53.486;14.542;2022-12-10T16:52:42;-1.60;99.90
54576;DHT22;40472;53.486;14.542;2022-12-10T16:55:13;-1.60;99.90
54576;DHT22;40472;53.486;14.542;2022-12-10T16:57:39;-1.60;99.90
54576;DHT22;40472;53.486;14.542;2022-12-10T17:00:10;-1.70;99.90
54576;DHT22;40472;53.486;14.542;2022-12-10T17:02:36;-1.70;99.90
54576;DHT22;40472;53.486;14.542;2022-12-10T17:05:02;-1.60;99.90
54576;DHT22;40472;53.486;14.542;2022-12-10T17:07:29;-1.70;99.90
54576;DHT22;40472;53.486;14.542;2022-12-10T17:09:59;-1.70;99.90
54576;DHT22;40472;53.486;14.542;2022-12-10T17:12:25;-1.70;99.90
54576;DHT22;40472;53.486;14.542;2022-12-10T17:14:55;-1.70;99.90
54576;DHT22;40472;53.486;14.542;2022-12-10T17:17:21;-1.80;99.90
54576;DHT22;40472;53.486;14.542;2022-12-10T17:19:48;-1.80;99.90
54576;DHT22;40472;53.486;14.542;2022-12-10T17:22:14;-1.80;99.90
54576;DHT22;40472;53.486;14.542;2022-12-10T17:24:40;-1.80;99.90
54576;DHT22;40472;53.486;14.542;2022-12-10T17:27:17;-1.90;99.90
54576;DHT22;40472;53.486;14.542;2022-12-10T17:29:45;-1.90;99.90
54576;DHT22;40472;53.486;14.542;2022-12-10T17:32:19;-1.80;99.90
54576;DHT22;40472;53.486;14.542;2022-12-10T17:34:47;-1.80;99.90
54576;DHT22;40472;53.486;14.542;2022-12-10T17:37:18;-1.90;99.90
54576;DHT22;40472;53.486;14.542;2022-12-10T17:39:45;-1.80;99.90